sensor_id;sensor_type;location;lat;lon;timestamp;P1;durP1;ratioP1;P2;durP2;ratioP2
25838;SDS011;13669;50.186;27.062;2022-07-23T00:00:31;19.02;;;8.77;;
25838;SDS011;13669;50.186;27.062;2022-07-23T00:03:05;13.85;;;7.30;;
25838;SDS011;13669;50.186;27.062;2022-07-23T00:05:33;16.88;;;7.80;;
25838;SDS011;13669;50.186;27.062;2022-07-23T00:08:02;15.15;;;6.53;;
25838;SDS011;13669;50.186;27.062;2022-07-23T00:10:32;13.57;;;6.40;;
25838;SDS011;13669;50.186;27.062;2022-07-23T00:12:59;10.60;;;6.50;;
25838;SDS011;13669;50.186;27.062;2022-07-23T00:15:27;11.18;;;6.05;;
25838;SDS011;13669;50.186;27.062;2022-07-23T00:17:55;12.30;;;5.93;;
25838;SDS011;13669;50.186;27.062;2022-07-23T00:20:22;14.23;;;6.03;;
25838;SDS011;13669;50.186;27.062;2022-07-23T00:22:51;10.88;;;6.20;;
25838;SDS011;13669;50.186;27.062;2022-07-23T00:25:20;14.52;;;6.18;;
25838;SDS011;13669;50.186;27.062;2022-07-23T00:27:58;14.57;;;6.90;;
25838;SDS011;13669;50.186;27.062;2022-07-23T00:30:26;9.90;;;6.75;;
25838;SDS011;13669;50.186;27.062;2022-07-23T00:32:57;15.80;;;7.25;;
25838;SDS011;13669;50.186;27.062;2022-07-23T00:35:28;14.55;;;6.55;;
25838;SDS011;13669;50.186;27.062;2022-07-23T00:37:58;13.38;;;6.95;;
25838;SDS011;13669;50.186;27.062;2022-07-23T00:40:26;12.40;;;7.30;;
25838;SDS011;13669;50.186;27.062;2022-07-23T00:42:54;12.25;;;7.03;;
25838;SDS011;13669;50.186;27.062;2022-07-23T00:45:23;13.20;;;6.57;;
25838;SDS011;13669;50.186;27.062;2022-07-23T00:47:50;11.55;;;6.13;;
25838;SDS011;13669;50.186;27.062;2022-07-23T00:50:18;10.93;;;5.85;;
25838;SDS011;13669;50.186;27.062;2022-07-23T00:52:46;11.05;;;5.72;;
25838;SDS011;13669;50.186;27.062;2022-07-23T00:55:14;14.52;;;6.72;;
25838;SDS011;13669;50.186;27.062;2022-07-23T00:57:41;12.10;;;6.50;;
25838;SDS011;13669;50.186;27.062;2022-07-23T01:00:11;10.45;;;6.40;;
25838;SDS011;13669;50.186;27.062;2022-07-23T01:05:09;9.45;;;5.65;;
25838;SDS011;13669;50.186;27.062;2022-07-23T01:07:37;7.22;;;5.57;;
25838;SDS011;13669;50.186;27.062;2022-07-23T01:10:05;10.52;;;5.22;;
25838;SDS011;13669;50.186;27.062;2022-07-23T01:12:53;10.38;;;5.65;;
25838;SDS011;13669;50.186;27.062;2022-07-23T01:15:21;9.60;;;5.50;;
25838;SDS011;13669;50.186;27.062;2022-07-23T01:17:49;7.72;;;5.00;;
25838;SDS011;13669;50.186;27.062;2022-07-23T01:20:17;10.55;;;5.75;;
25838;SDS011;13669;50.186;27.062;2022-07-23T01:22:45;8.43;;;5.38;;
25838;SDS011;13669;50.186;27.062;2022-07-23T01:25:13;12.20;;;5.78;;
25838;SDS011;13669;50.186;27.062;2022-07-23T01:27:40;9.73;;;5.57;;
25838;SDS011;13669;50.186;27.062;2022-07-23T01:30:09;9.70;;;6.55;;
25838;SDS011;13669;50.186;27.062;2022-07-23T01:32:37;12.35;;;5.72;;
25838;SDS011;13669;50.186;27.062;2022-07-23T01:35:05;11.60;;;5.90;;
25838;SDS011;13669;50.186;27.062;2022-07-23T01:37:34;9.75;;;5.60;;
25838;SDS011;13669;50.186;27.062;2022-07-23T01:40:01;10.00;;;5.50;;
25838;SDS011;13669;50.186;27.062;2022-07-23T01:42:30;9.15;;;5.70;;
25838;SDS011;13669;50.186;27.062;2022-07-23T01:44:58;8.82;;;5.32;;
25838;SDS011;13669;50.186;27.062;2022-07-23T01:47:26;9.52;;;5.13;;
25838;SDS011;13669;50.186;27.062;2022-07-23T01:49:54;11.75;;;4.82;;
25838;SDS011;13669;50.186;27.062;2022-07-23T01:52:21;10.57;;;5.55;;
25838;SDS011;13669;50.186;27.062;2022-07-23T01:54:49;10.40;;;6.15;;
25838;SDS011;13669;50.186;27.062;2022-07-23T01:57:16;13.80;;;6.68;;
25838;SDS011;13669;50.186;27.062;2022-07-23T01:59:44;16.85;;;6.72;;
25838;SDS011;13669;50.186;27.062;2022-07-23T02:02:11;12.35;;;6.75;;
25838;SDS011;13669;50.186;27.062;2022-07-23T02:04:39;13.25;;;6.55;;
25838;SDS011;13669;50.186;27.062;2022-07-23T02:07:07;10.05;;;6.38;;
25838;SDS011;13669;50.186;27.062;2022-07-23T02:09:34;13.82;;;6.10;;
25838;SDS011;13669;50.186;27.062;2022-07-23T02:12:02;13.02;;;7.05;;
25838;SDS011;13669;50.186;27.062;2022-07-23T02:14:30;13.70;;;6.15;;
25838;SDS011;13669;50.186;27.062;2022-07-23T02:16:58;12.63;;;6.20;;
25838;SDS011;13669;50.186;27.062;2022-07-23T02:19:25;14.50;;;6.00;;
25838;SDS011;13669;50.186;27.062;2022-07-23T02:21:53;11.75;;;6.85;;
25838;SDS011;13669;50.186;27.062;2022-07-23T02:24:21;18.33;;;6.60;;
25838;SDS011;13669;50.186;27.062;2022-07-23T02:26:49;17.20;;;6.50;;
25838;SDS011;13669;50.186;27.062;2022-07-23T02:29:16;14.20;;;6.35;;
25838;SDS011;13669;50.186;27.062;2022-07-23T02:31:44;11.23;;;6.38;;
25838;SDS011;13669;50.186;27.062;2022-07-23T02:34:12;12.90;;;6.30;;
25838;SDS011;13669;50.186;27.062;2022-07-23T02:36:40;12.43;;;6.63;;
25838;SDS011;13669;50.186;27.062;2022-07-23T02:39:07;12.90;;;6.32;;
25838;SDS011;13669;50.186;27.062;2022-07-23T02:41:35;15.23;;;6.32;;
25838;SDS011;13669;50.186;27.062;2022-07-23T02:44:02;8.10;;;5.63;;
25838;SDS011;13669;50.186;27.062;2022-07-23T02:46:30;12.48;;;6.20;;
25838;SDS011;13669;50.186;27.062;2022-07-23T02:48:58;9.50;;;5.60;;
25838;SDS011;13669;50.186;27.062;2022-07-23T02:51:26;9.80;;;5.40;;
25838;SDS011;13669;50.186;27.062;2022-07-23T02:53:53;13.43;;;5.95;;
25838;SDS011;13669;50.186;27.062;2022-07-23T02:56:21;8.52;;;5.15;;
25838;SDS011;13669;50.186;27.062;2022-07-23T02:58:48;11.70;;;5.45;;
25838;SDS011;13669;50.186;27.062;2022-07-23T03:01:16;10.73;;;4.78;;
25838;SDS011;13669;50.186;27.062;2022-07-23T03:03:47;17.70;;;6.60;;
25838;SDS011;13669;50.186;27.062;2022-07-23T03:06:14;15.48;;;5.72;;
25838;SDS011;13669;50.186;27.062;2022-07-23T03:08:42;10.82;;;5.53;;
25838;SDS011;13669;50.186;27.062;2022-07-23T03:11:09;17.55;;;5.63;;
25838;SDS011;13669;50.186;27.062;2022-07-23T03:13:42;11.85;;;5.88;;
25838;SDS011;13669;50.186;27.062;2022-07-23T03:16:10;12.48;;;5.03;;
25838;SDS011;13669;50.186;27.062;2022-07-23T03:18:38;14.70;;;5.68;;
25838;SDS011;13669;50.186;27.062;2022-07-23T03:21:06;12.98;;;5.22;;
25838;SDS011;13669;50.186;27.062;2022-07-23T03:23:34;16.55;;;5.68;;
25838;SDS011;13669;50.186;27.062;2022-07-23T03:26:02;11.10;;;5.15;;
25838;SDS011;13669;50.186;27.062;2022-07-23T03:28:30;9.20;;;5.32;;
25838;SDS011;13669;50.186;27.062;2022-07-23T03:30:57;12.25;;;5.25;;
25838;SDS011;13669;50.186;27.062;2022-07-23T03:33:25;11.23;;;5.57;;
25838;SDS011;13669;50.186;27.062;2022-07-23T03:35:53;11.88;;;5.13;;
25838;SDS011;13669;50.186;27.062;2022-07-23T03:38:20;8.85;;;4.70;;
25838;SDS011;13669;50.186;27.062;2022-07-23T03:40:49;8.32;;;4.63;;
25838;SDS011;13669;50.186;27.062;2022-07-23T03:43:17;9.63;;;4.20;;
25838;SDS011;13669;50.186;27.062;2022-07-23T03:45:44;8.45;;;4.90;;
25838;SDS011;13669;50.186;27.062;2022-07-23T03:48:12;6.90;;;4.13;;
25838;SDS011;13669;50.186;27.062;2022-07-23T03:50:39;8.77;;;4.38;;
25838;SDS011;13669;50.186;27.062;2022-07-23T03:53:07;9.38;;;4.20;;
25838;SDS011;13669;50.186;27.062;2022-07-23T03:55:34;7.68;;;4.20;;
25838;SDS011;13669;50.186;27.062;2022-07-23T03:58:02;7.57;;;4.90;;
25838;SDS011;13669;50.186;27.062;2022-07-23T04:00:29;10.35;;;4.38;;
25838;SDS011;13669;50.186;27.062;2022-07-23T04:02:57;7.88;;;4.57;;
25838;SDS011;13669;50.186;27.062;2022-07-23T04:05:24;8.68;;;4.25;;
25838;SDS011;13669;50.186;27.062;2022-07-23T04:07:52;7.95;;;4.07;;
25838;SDS011;13669;50.186;27.062;2022-07-23T04:10:19;9.90;;;4.07;;
25838;SDS011;13669;50.186;27.062;2022-07-23T04:12:47;7.85;;;4.32;;
25838;SDS011;13669;50.186;27.062;2022-07-23T04:15:14;12.45;;;4.38;;
25838;SDS011;13669;50.186;27.062;2022-07-23T04:17:42;8.18;;;4.10;;
25838;SDS011;13669;50.186;27.062;2022-07-23T04:20:10;10.60;;;3.92;;
25838;SDS011;13669;50.186;27.062;2022-07-23T04:22:38;6.45;;;3.97;;
25838;SDS011;13669;50.186;27.062;2022-07-23T04:25:06;9.60;;;4.72;;
25838;SDS011;13669;50.186;27.062;2022-07-23T04:27:34;7.15;;;4.70;;
25838;SDS011;13669;50.186;27.062;2022-07-23T04:30:01;13.00;;;4.32;;
25838;SDS011;13669;50.186;27.062;2022-07-23T04:32:29;9.35;;;4.95;;
25838;SDS011;13669;50.186;27.062;2022-07-23T04:34:56;13.10;;;4.45;;
25838;SDS011;13669;50.186;27.062;2022-07-23T04:37:24;11.65;;;4.53;;
25838;SDS011;13669;50.186;27.062;2022-07-23T04:39:54;10.00;;;4.07;;
25838;SDS011;13669;50.186;27.062;2022-07-23T04:42:22;12.13;;;4.50;;
25838;SDS011;13669;50.186;27.062;2022-07-23T04:44:50;16.48;;;4.32;;
25838;SDS011;13669;50.186;27.062;2022-07-23T04:47:17;17.02;;;4.32;;
25838;SDS011;13669;50.186;27.062;2022-07-23T04:49:48;14.95;;;4.35;;
25838;SDS011;13669;50.186;27.062;2022-07-23T04:52:15;23.08;;;4.20;;
25838;SDS011;13669;50.186;27.062;2022-07-23T04:54:43;8.43;;;4.20;;
25838;SDS011;13669;50.186;27.062;2022-07-23T04:57:10;11.55;;;4.05;;
25838;SDS011;13669;50.186;27.062;2022-07-23T04:59:38;10.40;;;3.88;;
25838;SDS011;13669;50.186;27.062;2022-07-23T05:02:05;14.38;;;4.30;;
25838;SDS011;13669;50.186;27.062;2022-07-23T05:04:33;17.38;;;4.53;;
25838;SDS011;13669;50.186;27.062;2022-07-23T05:07:01;11.48;;;4.00;;
25838;SDS011;13669;50.186;27.062;2022-07-23T05:09:29;8.63;;;3.67;;
25838;SDS011;13669;50.186;27.062;2022-07-23T05:11:57;10.35;;;3.40;;
25838;SDS011;13669;50.186;27.062;2022-07-23T05:14:24;15.10;;;4.00;;
25838;SDS011;13669;50.186;27.062;2022-07-23T05:16:55;6.65;;;3.08;;
25838;SDS011;13669;50.186;27.062;2022-07-23T05:19:22;11.25;;;3.53;;
25838;SDS011;13669;50.186;27.062;2022-07-23T05:21:51;7.32;;;2.95;;
25838;SDS011;13669;50.186;27.062;2022-07-23T05:24:18;6.40;;;3.10;;
25838;SDS011;13669;50.186;27.062;2022-07-23T05:26:46;5.85;;;2.90;;
25838;SDS011;13669;50.186;27.062;2022-07-23T05:29:13;7.00;;;2.88;;
25838;SDS011;13669;50.186;27.062;2022-07-23T05:31:41;6.13;;;3.20;;
25838;SDS011;13669;50.186;27.062;2022-07-23T05:34:08;7.05;;;3.00;;
25838;SDS011;13669;50.186;27.062;2022-07-23T05:36:43;7.00;;;2.92;;
25838;SDS011;13669;50.186;27.062;2022-07-23T05:39:10;13.15;;;3.42;;
25838;SDS011;13669;50.186;27.062;2022-07-23T05:41:38;11.63;;;3.33;;
25838;SDS011;13669;50.186;27.062;2022-07-23T05:44:06;9.98;;;3.10;;
25838;SDS011;13669;50.186;27.062;2022-07-23T05:46:34;9.15;;;3.30;;
25838;SDS011;13669;50.186;27.062;2022-07-23T05:49:01;11.93;;;3.58;;
25838;SDS011;13669;50.186;27.062;2022-07-23T05:51:29;10.68;;;3.40;;
25838;SDS011;13669;50.186;27.062;2022-07-23T05:53:57;9.27;;;3.70;;
25838;SDS011;13669;50.186;27.062;2022-07-23T05:56:25;10.00;;;3.60;;
25838;SDS011;13669;50.186;27.062;2022-07-23T05:58:52;11.45;;;3.90;;
25838;SDS011;13669;50.186;27.062;2022-07-23T06:01:20;13.48;;;4.53;;
25838;SDS011;13669;50.186;27.062;2022-07-23T06:03:47;8.00;;;2.97;;
25838;SDS011;13669;50.186;27.062;2022-07-23T06:06:15;5.95;;;2.80;;
25838;SDS011;13669;50.186;27.062;2022-07-23T06:08:42;5.40;;;2.92;;
25838;SDS011;13669;50.186;27.062;2022-07-23T06:11:10;11.35;;;3.40;;
25838;SDS011;13669;50.186;27.062;2022-07-23T06:13:38;9.77;;;3.60;;
25838;SDS011;13669;50.186;27.062;2022-07-23T06:16:05;8.70;;;3.28;;
25838;SDS011;13669;50.186;27.062;2022-07-23T06:18:33;6.95;;;3.10;;
25838;SDS011;13669;50.186;27.062;2022-07-23T06:21:00;11.13;;;3.20;;
25838;SDS011;13669;50.186;27.062;2022-07-23T06:23:48;9.65;;;2.78;;
25838;SDS011;13669;50.186;27.062;2022-07-23T06:26:16;6.63;;;2.97;;
25838;SDS011;13669;50.186;27.062;2022-07-23T06:28:43;4.65;;;2.88;;
25838;SDS011;13669;50.186;27.062;2022-07-23T06:31:11;8.52;;;3.35;;
25838;SDS011;13669;50.186;27.062;2022-07-23T06:33:38;10.43;;;3.35;;
25838;SDS011;13669;50.186;27.062;2022-07-23T06:36:06;8.93;;;3.15;;
25838;SDS011;13669;50.186;27.062;2022-07-23T06:38:34;6.93;;;3.60;;
25838;SDS011;13669;50.186;27.062;2022-07-23T06:41:02;6.90;;;3.03;;
25838;SDS011;13669;50.186;27.062;2022-07-23T06:43:30;10.63;;;3.30;;
25838;SDS011;13669;50.186;27.062;2022-07-23T06:45:58;3.90;;;2.83;;
25838;SDS011;13669;50.186;27.062;2022-07-23T06:48:26;4.15;;;2.95;;
25838;SDS011;13669;50.186;27.062;2022-07-23T06:50:58;10.32;;;2.90;;
25838;SDS011;13669;50.186;27.062;2022-07-23T06:53:25;6.85;;;2.42;;
25838;SDS011;13669;50.186;27.062;2022-07-23T06:55:53;5.95;;;2.42;;
25838;SDS011;13669;50.186;27.062;2022-07-23T06:58:21;6.22;;;2.47;;
25838;SDS011;13669;50.186;27.062;2022-07-23T07:00:48;4.15;;;2.50;;
25838;SDS011;13669;50.186;27.062;2022-07-23T07:03:16;5.25;;;2.50;;
25838;SDS011;13669;50.186;27.062;2022-07-23T07:05:44;5.40;;;2.10;;
25838;SDS011;13669;50.186;27.062;2022-07-23T07:08:12;3.08;;;2.28;;
25838;SDS011;13669;50.186;27.062;2022-07-23T07:10:40;3.08;;;2.20;;
25838;SDS011;13669;50.186;27.062;2022-07-23T07:13:07;3.45;;;2.42;;
25838;SDS011;13669;50.186;27.062;2022-07-23T07:15:35;4.70;;;2.45;;
25838;SDS011;13669;50.186;27.062;2022-07-23T07:18:03;18.83;;;2.83;;
25838;SDS011;13669;50.186;27.062;2022-07-23T07:20:30;6.00;;;2.92;;
25838;SDS011;13669;50.186;27.062;2022-07-23T07:22:58;6.28;;;3.15;;
25838;SDS011;13669;50.186;27.062;2022-07-23T07:25:26;4.78;;;3.08;;
25838;SDS011;13669;50.186;27.062;2022-07-23T07:27:53;8.70;;;2.92;;
25838;SDS011;13669;50.186;27.062;2022-07-23T07:30:21;6.28;;;2.90;;
25838;SDS011;13669;50.186;27.062;2022-07-23T07:32:49;9.82;;;3.00;;
25838;SDS011;13669;50.186;27.062;2022-07-23T07:35:22;5.70;;;3.10;;
25838;SDS011;13669;50.186;27.062;2022-07-23T07:37:51;6.78;;;2.80;;
25838;SDS011;13669;50.186;27.062;2022-07-23T07:40:18;4.75;;;3.03;;
25838;SDS011;13669;50.186;27.062;2022-07-23T07:42:47;9.40;;;2.80;;
25838;SDS011;13669;50.186;27.062;2022-07-23T07:45:17;5.03;;;2.72;;
25838;SDS011;13669;50.186;27.062;2022-07-23T07:47:47;5.15;;;2.65;;
25838;SDS011;13669;50.186;27.062;2022-07-23T07:50:15;7.25;;;2.65;;
25838;SDS011;13669;50.186;27.062;2022-07-23T07:52:43;5.20;;;3.13;;
25838;SDS011;13669;50.186;27.062;2022-07-23T07:55:11;9.68;;;3.20;;
25838;SDS011;13669;50.186;27.062;2022-07-23T07:57:38;4.05;;;2.70;;
25838;SDS011;13669;50.186;27.062;2022-07-23T08:00:08;4.30;;;2.50;;
25838;SDS011;13669;50.186;27.062;2022-07-23T08:02:46;6.68;;;2.63;;
25838;SDS011;13669;50.186;27.062;2022-07-23T08:05:22;5.85;;;2.70;;
25838;SDS011;13669;50.186;27.062;2022-07-23T08:07:54;3.35;;;2.47;;
25838;SDS011;13669;50.186;27.062;2022-07-23T08:10:26;6.60;;;2.70;;
25838;SDS011;13669;50.186;27.062;2022-07-23T08:12:55;6.90;;;2.20;;
25838;SDS011;13669;50.186;27.062;2022-07-23T08:15:24;6.20;;;2.55;;
25838;SDS011;13669;50.186;27.062;2022-07-23T08:17:54;6.50;;;2.70;;
25838;SDS011;13669;50.186;27.062;2022-07-23T08:20:23;8.48;;;2.50;;
25838;SDS011;13669;50.186;27.062;2022-07-23T08:22:58;4.20;;;2.58;;
25838;SDS011;13669;50.186;27.062;2022-07-23T08:25:29;5.40;;;2.20;;
25838;SDS011;13669;50.186;27.062;2022-07-23T08:28:00;5.40;;;2.42;;
25838;SDS011;13669;50.186;27.062;2022-07-23T08:30:29;4.22;;;2.40;;
25838;SDS011;13669;50.186;27.062;2022-07-23T08:37:59;7.03;;;2.50;;
25838;SDS011;13669;50.186;27.062;2022-07-23T08:40:29;17.98;;;3.20;;
25838;SDS011;13669;50.186;27.062;2022-07-23T08:42:59;7.20;;;2.28;;
25838;SDS011;13669;50.186;27.062;2022-07-23T08:45:27;8.25;;;2.45;;
25838;SDS011;13669;50.186;27.062;2022-07-23T08:47:56;4.72;;;2.15;;
25838;SDS011;13669;50.186;27.062;2022-07-23T08:50:31;5.10;;;3.00;;
25838;SDS011;13669;50.186;27.062;2022-07-23T08:53:05;8.05;;;2.70;;
25838;SDS011;13669;50.186;27.062;2022-07-23T08:55:33;7.70;;;2.47;;
25838;SDS011;13669;50.186;27.062;2022-07-23T08:58:01;10.48;;;2.50;;
25838;SDS011;13669;50.186;27.062;2022-07-23T09:00:29;5.65;;;2.28;;
25838;SDS011;13669;50.186;27.062;2022-07-23T09:02:57;5.75;;;2.70;;
25838;SDS011;13669;50.186;27.062;2022-07-23T09:05:25;8.48;;;2.92;;
25838;SDS011;13669;50.186;27.062;2022-07-23T09:11:10;8.63;;;2.40;;
25838;SDS011;13669;50.186;27.062;2022-07-23T09:13:40;3.60;;;2.20;;
25838;SDS011;13669;50.186;27.062;2022-07-23T09:16:15;4.15;;;2.53;;
25838;SDS011;13669;50.186;27.062;2022-07-23T09:18:48;4.75;;;2.35;;
25838;SDS011;13669;50.186;27.062;2022-07-23T09:21:24;3.58;;;2.50;;
25838;SDS011;13669;50.186;27.062;2022-07-23T09:23:59;13.35;;;2.70;;
25838;SDS011;13669;50.186;27.062;2022-07-23T09:26:38;7.97;;;2.70;;
25838;SDS011;13669;50.186;27.062;2022-07-23T09:29:09;9.02;;;2.53;;
25838;SDS011;13669;50.186;27.062;2022-07-23T09:31:43;6.60;;;2.67;;
25838;SDS011;13669;50.186;27.062;2022-07-23T09:36:43;6.20;;;2.67;;
25838;SDS011;13669;50.186;27.062;2022-07-23T09:39:12;7.22;;;2.92;;
25838;SDS011;13669;50.186;27.062;2022-07-23T09:41:44;4.07;;;2.75;;
25838;SDS011;13669;50.186;27.062;2022-07-23T09:44:15;5.00;;;2.90;;
25838;SDS011;13669;50.186;27.062;2022-07-23T09:46:57;5.63;;;2.63;;
25838;SDS011;13669;50.186;27.062;2022-07-23T09:49:26;8.73;;;2.65;;
25838;SDS011;13669;50.186;27.062;2022-07-23T09:51:55;2.80;;;2.30;;
25838;SDS011;13669;50.186;27.062;2022-07-23T09:56:53;4.40;;;2.70;;
25838;SDS011;13669;50.186;27.062;2022-07-23T09:59:26;3.42;;;2.67;;
25838;SDS011;13669;50.186;27.062;2022-07-23T10:01:55;3.72;;;2.47;;
25838;SDS011;13669;50.186;27.062;2022-07-23T10:04:24;4.85;;;3.25;;
25838;SDS011;13669;50.186;27.062;2022-07-23T10:06:53;4.70;;;2.95;;
25838;SDS011;13669;50.186;27.062;2022-07-23T10:09:27;5.35;;;3.00;;
25838;SDS011;13669;50.186;27.062;2022-07-23T10:12:01;9.35;;;2.90;;
25838;SDS011;13669;50.186;27.062;2022-07-23T10:14:38;5.15;;;2.38;;
25838;SDS011;13669;50.186;27.062;2022-07-23T10:17:07;6.43;;;3.85;;
25838;SDS011;13669;50.186;27.062;2022-07-23T10:19:35;25.92;;;17.13;;
25838;SDS011;13669;50.186;27.062;2022-07-23T10:22:08;9.57;;;5.82;;
25838;SDS011;13669;50.186;27.062;2022-07-23T10:36:18;9.77;;;3.58;;
25838;SDS011;13669;50.186;27.062;2022-07-23T10:45:43;10.13;;;3.30;;
25838;SDS011;13669;50.186;27.062;2022-07-23T10:53:53;6.40;;;3.20;;
25838;SDS011;13669;50.186;27.062;2022-07-23T11:02:45;8.23;;;4.65;;
25838;SDS011;13669;50.186;27.062;2022-07-23T11:05:15;20.63;;;14.73;;
25838;SDS011;13669;50.186;27.062;2022-07-23T11:23:59;7.15;;;3.05;;
25838;SDS011;13669;50.186;27.062;2022-07-23T11:31:54;3.72;;;2.67;;
25838;SDS011;13669;50.186;27.062;2022-07-23T11:37:03;3.83;;;2.58;;
25838;SDS011;13669;50.186;27.062;2022-07-23T11:39:36;2.45;;;2.25;;
25838;SDS011;13669;50.186;27.062;2022-07-23T11:42:06;3.65;;;2.47;;
25838;SDS011;13669;50.186;27.062;2022-07-23T11:47:03;8.95;;;4.18;;
25838;SDS011;13669;50.186;27.062;2022-07-23T11:49:32;6.55;;;2.90;;
25838;SDS011;13669;50.186;27.062;2022-07-23T11:54:57;4.85;;;2.58;;
25838;SDS011;13669;50.186;27.062;2022-07-23T11:57:27;5.13;;;2.40;;
25838;SDS011;13669;50.186;27.062;2022-07-23T11:59:58;5.43;;;2.30;;
25838;SDS011;13669;50.186;27.062;2022-07-23T12:02:43;5.82;;;2.45;;
25838;SDS011;13669;50.186;27.062;2022-07-23T12:05:16;4.28;;;2.35;;
25838;SDS011;13669;50.186;27.062;2022-07-23T12:07:47;4.97;;;2.50;;
25838;SDS011;13669;50.186;27.062;2022-07-23T12:10:20;3.67;;;2.17;;
25838;SDS011;13669;50.186;27.062;2022-07-23T12:12:57;2.75;;;2.00;;
25838;SDS011;13669;50.186;27.062;2022-07-23T12:15:49;2.92;;;2.33;;
25838;SDS011;13669;50.186;27.062;2022-07-23T12:18:23;4.75;;;2.50;;
25838;SDS011;13669;50.186;27.062;2022-07-23T12:20:53;6.25;;;2.33;;
25838;SDS011;13669;50.186;27.062;2022-07-23T12:23:23;3.33;;;2.13;;
25838;SDS011;13669;50.186;27.062;2022-07-23T12:25:52;6.47;;;3.00;;
25838;SDS011;13669;50.186;27.062;2022-07-23T12:28:22;5.10;;;2.60;;
25838;SDS011;13669;50.186;27.062;2022-07-23T12:30:57;10.48;;;4.63;;
25838;SDS011;13669;50.186;27.062;2022-07-23T12:33:29;5.30;;;2.88;;
25838;SDS011;13669;50.186;27.062;2022-07-23T12:35:59;4.43;;;2.67;;
25838;SDS011;13669;50.186;27.062;2022-07-23T12:38:38;4.90;;;2.40;;
25838;SDS011;13669;50.186;27.062;2022-07-23T12:41:07;6.30;;;2.63;;
25838;SDS011;13669;50.186;27.062;2022-07-23T12:43:36;4.55;;;2.97;;
25838;SDS011;13669;50.186;27.062;2022-07-23T12:53:48;3.92;;;2.58;;
25838;SDS011;13669;50.186;27.062;2022-07-23T12:56:18;3.78;;;2.40;;
25838;SDS011;13669;50.186;27.062;2022-07-23T12:58:52;4.00;;;2.45;;
25838;SDS011;13669;50.186;27.062;2022-07-23T13:09:24;4.85;;;2.88;;
25838;SDS011;13669;50.186;27.062;2022-07-23T13:11:58;5.85;;;2.20;;
25838;SDS011;13669;50.186;27.062;2022-07-23T13:14:27;6.63;;;2.55;;
25838;SDS011;13669;50.186;27.062;2022-07-23T13:16:55;3.10;;;2.80;;
25838;SDS011;13669;50.186;27.062;2022-07-23T13:21:53;3.78;;;2.80;;
25838;SDS011;13669;50.186;27.062;2022-07-23T13:24:21;3.70;;;2.85;;
25838;SDS011;13669;50.186;27.062;2022-07-23T13:26:49;3.63;;;2.60;;
25838;SDS011;13669;50.186;27.062;2022-07-23T13:29:18;5.00;;;2.92;;
25838;SDS011;13669;50.186;27.062;2022-07-23T13:31:46;6.50;;;2.80;;
25838;SDS011;13669;50.186;27.062;2022-07-23T13:34:16;4.30;;;2.90;;
25838;SDS011;13669;50.186;27.062;2022-07-23T13:36:46;7.32;;;3.03;;
25838;SDS011;13669;50.186;27.062;2022-07-23T13:39:13;3.20;;;2.80;;
25838;SDS011;13669;50.186;27.062;2022-07-23T13:41:41;5.82;;;3.45;;
25838;SDS011;13669;50.186;27.062;2022-07-23T13:44:16;4.05;;;3.03;;
25838;SDS011;13669;50.186;27.062;2022-07-23T13:49:13;4.72;;;3.20;;
25838;SDS011;13669;50.186;27.062;2022-07-23T13:51:41;5.13;;;2.80;;
25838;SDS011;13669;50.186;27.062;2022-07-23T13:54:10;6.25;;;3.10;;
25838;SDS011;13669;50.186;27.062;2022-07-23T13:56:38;5.95;;;2.85;;
25838;SDS011;13669;50.186;27.062;2022-07-23T13:59:05;6.25;;;2.80;;
25838;SDS011;13669;50.186;27.062;2022-07-23T14:01:33;6.82;;;3.13;;
25838;SDS011;13669;50.186;27.062;2022-07-23T14:04:21;7.80;;;3.05;;
25838;SDS011;13669;50.186;27.062;2022-07-23T14:06:49;6.07;;;3.03;;
25838;SDS011;13669;50.186;27.062;2022-07-23T14:09:20;6.00;;;3.17;;
25838;SDS011;13669;50.186;27.062;2022-07-23T14:11:48;8.38;;;3.05;;
25838;SDS011;13669;50.186;27.062;2022-07-23T14:14:18;3.92;;;2.78;;
25838;SDS011;13669;50.186;27.062;2022-07-23T14:16:46;3.67;;;2.67;;
25838;SDS011;13669;50.186;27.062;2022-07-23T14:19:13;4.63;;;2.83;;
25838;SDS011;13669;50.186;27.062;2022-07-23T14:21:41;6.03;;;3.45;;
25838;SDS011;13669;50.186;27.062;2022-07-23T14:24:10;6.47;;;3.38;;
25838;SDS011;13669;50.186;27.062;2022-07-23T14:26:38;4.97;;;3.22;;
25838;SDS011;13669;50.186;27.062;2022-07-23T14:29:05;3.60;;;2.80;;
25838;SDS011;13669;50.186;27.062;2022-07-23T14:31:34;6.00;;;3.13;;
25838;SDS011;13669;50.186;27.062;2022-07-23T14:34:02;4.38;;;2.58;;
25838;SDS011;13669;50.186;27.062;2022-07-23T14:36:30;6.93;;;3.22;;
25838;SDS011;13669;50.186;27.062;2022-07-23T14:38:57;9.45;;;3.42;;
25838;SDS011;13669;50.186;27.062;2022-07-23T14:41:26;6.03;;;3.03;;
25838;SDS011;13669;50.186;27.062;2022-07-23T14:43:56;4.70;;;2.53;;
25838;SDS011;13669;50.186;27.062;2022-07-23T14:46:23;3.65;;;2.67;;
25838;SDS011;13669;50.186;27.062;2022-07-23T14:48:51;5.32;;;2.83;;
25838;SDS011;13669;50.186;27.062;2022-07-23T14:51:18;6.00;;;2.92;;
25838;SDS011;13669;50.186;27.062;2022-07-23T14:53:46;8.07;;;3.67;;
25838;SDS011;13669;50.186;27.062;2022-07-23T14:56:14;5.97;;;2.92;;
25838;SDS011;13669;50.186;27.062;2022-07-23T14:58:42;6.35;;;3.00;;
25838;SDS011;13669;50.186;27.062;2022-07-23T15:01:10;3.80;;;2.70;;
25838;SDS011;13669;50.186;27.062;2022-07-23T15:03:40;4.82;;;2.88;;
25838;SDS011;13669;50.186;27.062;2022-07-23T15:06:31;5.88;;;3.38;;
25838;SDS011;13669;50.186;27.062;2022-07-23T15:09:23;5.45;;;2.88;;
25838;SDS011;13669;50.186;27.062;2022-07-23T15:11:50;5.03;;;2.55;;
25838;SDS011;13669;50.186;27.062;2022-07-23T15:14:18;4.75;;;3.22;;
25838;SDS011;13669;50.186;27.062;2022-07-23T15:16:53;9.60;;;3.20;;
25838;SDS011;13669;50.186;27.062;2022-07-23T15:19:21;7.72;;;3.00;;
25838;SDS011;13669;50.186;27.062;2022-07-23T15:21:49;4.97;;;3.05;;
25838;SDS011;13669;50.186;27.062;2022-07-23T15:24:16;6.80;;;3.22;;
25838;SDS011;13669;50.186;27.062;2022-07-23T15:26:44;14.45;;;3.45;;
25838;SDS011;13669;50.186;27.062;2022-07-23T15:29:12;12.20;;;3.45;;
25838;SDS011;13669;50.186;27.062;2022-07-23T15:31:39;7.90;;;3.58;;
25838;SDS011;13669;50.186;27.062;2022-07-23T15:34:07;8.27;;;4.32;;
25838;SDS011;13669;50.186;27.062;2022-07-23T15:36:36;5.13;;;3.33;;
25838;SDS011;13669;50.186;27.062;2022-07-23T15:39:10;5.85;;;2.85;;
25838;SDS011;13669;50.186;27.062;2022-07-23T15:41:37;8.43;;;2.88;;
25838;SDS011;13669;50.186;27.062;2022-07-23T15:44:09;7.40;;;3.42;;
25838;SDS011;13669;50.186;27.062;2022-07-23T15:46:57;5.10;;;2.97;;
25838;SDS011;13669;50.186;27.062;2022-07-23T15:49:26;7.55;;;3.22;;
25838;SDS011;13669;50.186;27.062;2022-07-23T15:51:54;10.73;;;3.13;;
25838;SDS011;13669;50.186;27.062;2022-07-23T15:54:23;4.60;;;3.00;;
25838;SDS011;13669;50.186;27.062;2022-07-23T15:56:52;3.88;;;2.67;;
25838;SDS011;13669;50.186;27.062;2022-07-23T15:59:21;7.43;;;3.10;;
25838;SDS011;13669;50.186;27.062;2022-07-23T16:01:55;6.82;;;3.78;;
25838;SDS011;13669;50.186;27.062;2022-07-23T16:04:24;5.47;;;3.15;;
25838;SDS011;13669;50.186;27.062;2022-07-23T16:06:52;5.18;;;3.05;;
25838;SDS011;13669;50.186;27.062;2022-07-23T16:09:20;4.68;;;3.10;;
25838;SDS011;13669;50.186;27.062;2022-07-23T16:11:47;11.07;;;3.60;;
25838;SDS011;13669;50.186;27.062;2022-07-23T16:14:15;4.45;;;2.97;;
25838;SDS011;13669;50.186;27.062;2022-07-23T16:16:43;5.70;;;2.90;;
25838;SDS011;13669;50.186;27.062;2022-07-23T16:19:10;8.75;;;3.30;;